»·PEaware :: N2070X KOLM-KEUG

N2070X :: KOLM-KEUG

FLIGHT INFORMATION

Flight Status: Arrived
Operator: Privately registered:
United States
More flights under this callsign
Pilot: Roger K. (8372)
Aircraft: Unknown
(CE T)
More flights by this aircraft type
Origin: KOLM Olympia
United States
Destination: KEUG Mahlon Sweet
United States
More flights between these airports :: More routes between these airports
Route: +YELM5 UBG CVO HOCUM MACTA
File this flight plan on PilotEdge
Remarks: +CW / REQUEST ILS RWY 16R CVO TRANSITION
Altitude:
(Current/Filed)
8,000ft
Speed:
(Current/Filed)
120kts
Departed: 11-Mar-19 04:47 PM
Arrived: 11-Mar-19 06:20 PM
Distance/Time
Traveled:
171nm/1:33
Distance/Time
To Go:
Arrived

Flight Plot

Page will automatically refresh every two minutes.

Flight plan parsing failed; only flown route is shown


Map Options




Map Legend


Flown Route
Filed Route
Departure Airport
Arrival Airport
Navaid (VOR, NDB)
Fix

Horizontal Profiles

Position Reports

Time Latitude Longitude Heading Altitude Ground
Speed
11-Mar-19 16:31 46.974728 -122.898426 320 210ft 0kts
11-Mar-19 16:32 46.974728 -122.898426 320 210ft 0kts
11-Mar-19 16:33 46.974728 -122.898426 320 210ft 0kts
11-Mar-19 16:34 46.974728 -122.898426 320 210ft 0kts
11-Mar-19 16:35 46.974728 -122.898426 320 210ft 0kts
11-Mar-19 16:36 46.974728 -122.898426 320 210ft 0kts
11-Mar-19 16:37 46.974728 -122.898426 320 210ft 0kts
11-Mar-19 16:38 46.974728 -122.898426 320 210ft 0kts
11-Mar-19 16:39 46.974728 -122.898426 320 210ft 0kts
11-Mar-19 16:40 46.974728 -122.898426 320 210ft 0kts
11-Mar-19 16:41 46.974998 -122.899078 298 210ft 2kts
11-Mar-19 16:42 46.975518 -122.900029 319 210ft 1kts
11-Mar-19 16:43 46.975946 -122.901176 277 210ft 1kts
11-Mar-19 16:44 46.975979 -122.901364 281 210ft 0kts
11-Mar-19 16:45 46.974791 -122.903073 192 210ft 37kts
11-Mar-19 16:46 46.950351 -122.911145 194 865ft 104kts
11-Mar-19 16:47 46.940523 -122.871090 79 1414ft 137kts
11-Mar-19 16:48 46.948492 -122.822339 79 1894ft 108kts
11-Mar-19 16:49 46.950765 -122.781795 141 2382ft 89kts
11-Mar-19 16:50 46.942591 -122.752584 79 2904ft 106kts
11-Mar-19 16:51 46.948887 -122.707248 85 3422ft 133kts
11-Mar-19 16:52 46.924943 -122.694831 211 3866ft 126kts
11-Mar-19 16:53 46.895183 -122.704961 186 4296ft 126kts
11-Mar-19 16:54 46.862087 -122.709629 189 4783ft 113kts
11-Mar-19 16:55 46.832155 -122.714911 190 5266ft 112kts
11-Mar-19 16:56 46.802395 -122.720413 190 5741ft 117kts
11-Mar-19 16:57 46.770546 -122.726323 189 6233ft 117kts
11-Mar-19 16:58 46.738127 -122.732341 189 6733ft 117kts
11-Mar-19 16:59 46.705481 -122.738407 189 7237ft 117kts
11-Mar-19 17:00 46.672876 -122.744465 188 7740ft 117kts
11-Mar-19 17:01 46.639110 -122.750729 188 7992ft 131kts
11-Mar-19 17:02 46.602869 -122.757446 188 7999ft 136kts
11-Mar-19 17:03 46.564891 -122.764205 188 7999ft 138kts
11-Mar-19 17:04 46.527283 -122.770969 188 7999ft 138kts
11-Mar-19 17:05 46.488553 -122.777934 188 7999ft 140kts
11-Mar-19 17:06 46.449263 -122.784996 188 7999ft 141kts
11-Mar-19 17:07 46.412966 -122.791503 188 7998ft 141kts
11-Mar-19 17:08 46.373700 -122.798532 188 7998ft 141kts
11-Mar-19 17:09 46.334343 -122.805569 188 7998ft 141kts
11-Mar-19 17:10 46.295350 -122.812531 188 7998ft 141kts
11-Mar-19 17:11 46.256676 -122.819424 188 7998ft 141kts
11-Mar-19 17:12 46.221300 -122.825719 188 7998ft 141kts
11-Mar-19 17:13 46.181193 -122.832850 188 7998ft 141kts
11-Mar-19 17:14 46.142576 -122.839706 188 7998ft 141kts
11-Mar-19 17:15 46.105595 -122.846258 188 7998ft 141kts
11-Mar-19 17:16 46.068522 -122.852822 188 7998ft 141kts
11-Mar-19 17:17 46.032026 -122.859262 188 7998ft 136kts
11-Mar-19 17:18 45.996242 -122.865573 188 7997ft 135kts
11-Mar-19 17:19 45.960191 -122.871932 188 7999ft 137kts
11-Mar-19 17:20 45.922879 -122.878510 188 7998ft 138kts
11-Mar-19 17:21 45.885147 -122.885144 188 7998ft 138kts
11-Mar-19 17:22 45.847487 -122.891760 188 7999ft 139kts
11-Mar-19 17:23 45.811278 -122.898112 188 7998ft 139kts
11-Mar-19 17:24 45.773322 -122.904761 188 7998ft 139kts
11-Mar-19 17:25 45.735410 -122.911391 188 7998ft 139kts
11-Mar-19 17:26 45.698616 -122.917819 188 7998ft 139kts
11-Mar-19 17:27 45.662016 -122.924203 188 7998ft 139kts
11-Mar-19 17:28 45.622431 -122.931098 188 7998ft 139kts
11-Mar-19 17:29 45.583706 -122.937833 188 7999ft 139kts
11-Mar-19 17:30 45.554605 -122.942891 188 7999ft 139kts
11-Mar-19 17:31 45.525247 -122.947985 188 7999ft 139kts
11-Mar-19 17:32 45.493754 -122.953444 188 7999ft 140kts
11-Mar-19 17:33 45.461415 -122.959044 188 7999ft 140kts
11-Mar-19 17:34 45.430447 -122.964402 188 7998ft 139kts
11-Mar-19 17:35 45.397904 -122.970006 188 7989ft 112kts
11-Mar-19 17:36 45.375739 -122.973706 188 7998ft 95kts
11-Mar-19 17:37 45.351219 -122.978225 196 8003ft 125kts
11-Mar-19 17:38 45.315940 -122.991542 196 7999ft 137kts
11-Mar-19 17:39 45.279575 -123.005186 196 7988ft 132kts
11-Mar-19 17:40 45.247428 -123.017167 196 7988ft 122kts
11-Mar-19 17:41 45.215882 -123.028972 196 7990ft 129kts
11-Mar-19 17:42 45.183819 -123.040982 196 7990ft 139kts
11-Mar-19 17:43 45.153365 -123.052364 196 7989ft 141kts
11-Mar-19 17:44 45.122161 -123.063996 196 7989ft 142kts
11-Mar-19 17:45 45.087220 -123.077010 196 7989ft 142kts
11-Mar-19 17:46 45.059253 -123.087407 196 7989ft 142kts
11-Mar-19 17:47 45.032205 -123.097453 196 7989ft 142kts
11-Mar-19 17:49 45.004421 -123.107766 195 7989ft 142kts
11-Mar-19 17:50 44.977060 -123.117909 195 7989ft 142kts
11-Mar-19 17:51 44.949694 -123.128043 195 7989ft 142kts
11-Mar-19 17:52 44.918918 -123.139427 195 7989ft 142kts
11-Mar-19 17:53 44.885091 -123.151924 195 7989ft 142kts
11-Mar-19 17:54 44.845134 -123.164968 199 7991ft 149kts
11-Mar-19 17:55 44.803527 -123.179947 200 7991ft 151kts
11-Mar-19 17:56 44.761595 -123.195367 200 7991ft 152kts
11-Mar-19 17:57 44.719571 -123.210794 198 7990ft 153kts
11-Mar-19 17:58 44.676834 -123.223990 200 7499ft 142kts
11-Mar-19 17:59 44.640251 -123.237214 202 6878ft 124kts
11-Mar-19 18:00 44.607129 -123.249592 202 6268ft 117kts
11-Mar-19 18:01 44.575989 -123.261469 202 5670ft 113kts
11-Mar-19 18:02 44.547120 -123.272658 202 5050ft 113kts
11-Mar-19 18:03 44.517088 -123.284450 201 4358ft 112kts
11-Mar-19 18:04 44.489803 -123.281803 151 4055ft 93kts
11-Mar-19 18:05 44.467433 -123.260046 152 4066ft 105kts
11-Mar-19 18:06 44.442824 -123.237774 161 4065ft 109kts
11-Mar-19 18:07 44.415469 -123.220810 177 4062ft 107kts
11-Mar-19 18:08 44.387184 -123.222083 185 4062ft 101kts
11-Mar-19 18:08 44.365567 -123.221684 186 4063ft 93kts
11-Mar-19 18:09 44.341026 -123.221273 186 4064ft 89kts
11-Mar-19 18:11 44.312637 -123.220906 186 3936ft 100kts
11-Mar-19 18:11 44.287947 -123.220749 184 3421ft 104kts
11-Mar-19 18:12 44.264586 -123.220212 185 2973ft 69kts
11-Mar-19 18:13 44.243520 -123.220085 184 2534ft 80kts
11-Mar-19 18:14 44.220394 -123.219895 183 2071ft 81kts
11-Mar-19 18:15 44.197255 -123.219593 182 1615ft 81kts
11-Mar-19 18:16 44.174155 -123.219328 183 1167ft 81kts
11-Mar-19 18:17 44.153296 -123.219073 184 763ft 61kts
11-Mar-19 18:18 44.136594 -123.219139 185 412ft 48kts
11-Mar-19 18:19 44.129799 -123.219115 178 376ft 4kts
11-Mar-19 18:20 44.126476 -123.218734 154 376ft 9kts
11-Mar-19 18:21 44.124533 -123.217125 151 376ft 14kts
11-Mar-19 18:22 44.121323 -123.214433 142 376ft 3kts
11-Mar-19 18:23 44.121677 -123.212400 110 376ft 8kts

Navigation Log

Ident Type
Flight plan parsing failed, navigation log unavailable